createdAt,value
2023-03-10T00:00:25.042Z,4.20
2023-03-10T00:02:57.547Z,4.12
2023-03-10T00:05:10.926Z,4.08
2023-03-10T00:07:24.530Z,4.07
2023-03-10T00:09:37.080Z,4.06
2023-03-10T00:11:49.737Z,4.07
2023-03-10T00:14:02.429Z,4.09
2023-03-10T00:16:19.655Z,4.09
2023-03-10T00:18:32.269Z,4.07
2023-03-10T00:20:44.947Z,4.07
2023-03-10T00:22:57.637Z,4.05
2023-03-10T00:25:10.963Z,4.03
2023-03-10T00:27:23.563Z,4.04
2023-03-10T00:29:36.135Z,4.03
2023-03-10T00:31:48.725Z,4.05
2023-03-10T00:34:01.333Z,4.05
2023-03-10T00:36:17.541Z,4.07
2023-03-10T00:38:30.207Z,4.08
2023-03-10T00:40:42.824Z,4.07
2023-03-10T00:42:55.416Z,4.08
2023-03-10T00:45:08.722Z,4.08
2023-03-10T00:47:21.326Z,4.09
2023-03-10T00:49:33.932Z,4.10
2023-03-10T00:51:46.560Z,4.10
2023-03-10T00:54:01.052Z,4.08
2023-03-10T00:56:22.275Z,4.07
2023-03-10T00:58:35.348Z,4.08
2023-03-10T01:00:47.915Z,4.10
2023-03-10T01:03:00.469Z,4.12
2023-03-10T01:05:14.658Z,4.11
2023-03-10T01:07:27.248Z,4.10
2023-03-10T01:09:39.846Z,4.08
2023-03-10T01:11:52.768Z,4.05
2023-03-10T01:14:08.201Z,4.01
2023-03-10T01:16:20.747Z,4.00
2023-03-10T01:18:33.497Z,3.99
2023-03-10T01:20:46.123Z,3.99
2023-03-10T01:22:59.145Z,3.97
2023-03-10T01:25:15.973Z,3.95
2023-03-10T01:27:28.613Z,3.95
2023-03-10T01:29:41.212Z,3.95
2023-03-10T01:31:53.844Z,3.94
2023-03-10T01:34:06.384Z,3.92
2023-03-10T01:36:21.919Z,3.92
2023-03-10T01:38:34.846Z,3.91
2023-03-10T01:40:49.914Z,3.89
2023-03-10T01:43:20.688Z,3.85
2023-03-10T01:45:33.201Z,3.79
2023-03-10T01:47:45.763Z,3.75
2023-03-10T01:49:58.728Z,3.73
2023-03-10T01:52:20.269Z,3.71
2023-03-10T01:54:58.852Z,3.68
2023-03-10T01:57:13.646Z,3.66
2023-03-10T01:59:27.484Z,3.69
2023-03-10T02:01:40.162Z,3.69
2023-03-10T02:04:07.962Z,3.68
2023-03-10T02:06:21.958Z,3.66
2023-03-10T02:08:41.812Z,3.65
2023-03-10T02:10:57.707Z,3.62
2023-03-10T02:13:10.437Z,3.62
2023-03-10T02:15:23.075Z,3.54
2023-03-10T02:17:36.119Z,3.48
2023-03-10T02:20:13.539Z,3.44
2023-03-10T02:22:26.781Z,3.37
2023-03-10T02:25:14.712Z,3.38
2023-03-10T02:27:31.195Z,3.39
2023-03-10T02:29:58.776Z,3.44
2023-03-10T02:32:15.080Z,3.49
2023-03-10T02:34:28.505Z,3.51
2023-03-10T02:36:41.212Z,3.52
2023-03-10T02:38:53.742Z,3.53
2023-03-10T02:41:19.271Z,3.57
2023-03-10T02:43:34.552Z,3.62
2023-03-10T02:45:48.943Z,3.67
2023-03-10T02:48:01.692Z,3.76
2023-03-10T02:50:16.758Z,3.88
2023-03-10T02:52:36.426Z,3.97
2023-03-10T02:54:49.018Z,4.10
2023-03-10T02:57:01.638Z,4.26
2023-03-10T02:59:14.960Z,4.42
2023-03-10T03:01:30.106Z,4.59
2023-03-10T03:03:43.957Z,4.78
2023-03-10T03:05:57.045Z,4.94
2023-03-10T03:08:10.130Z,5.11
2023-03-10T03:10:22.934Z,5.26
2023-03-10T03:12:35.501Z,5.42
2023-03-10T03:14:48.862Z,5.57
2023-03-10T03:17:01.611Z,5.70
2023-03-10T03:19:14.278Z,5.84
2023-03-10T03:21:27.376Z,5.96
2023-03-10T03:23:39.966Z,6.04
2023-03-10T03:25:52.564Z,6.10
2023-03-10T03:28:06.487Z,6.15
2023-03-10T03:30:22.414Z,6.17
2023-03-10T03:32:35.865Z,6.19
2023-03-10T03:34:48.523Z,6.24
2023-03-10T03:37:01.081Z,6.31
2023-03-10T03:39:17.233Z,6.43
2023-03-10T03:41:29.944Z,6.59
2023-03-10T03:43:42.504Z,6.75
2023-03-10T03:45:55.886Z,6.89
2023-03-10T03:48:09.333Z,7.01
2023-03-10T03:50:22.661Z,7.11
2023-03-10T03:52:35.544Z,7.18
2023-03-10T03:54:48.112Z,7.26
2023-03-10T03:57:00.649Z,7.32
2023-03-10T03:59:13.257Z,7.36
2023-03-10T04:01:25.922Z,7.37
2023-03-10T04:03:39.190Z,7.34
2023-03-10T04:05:51.849Z,7.31
2023-03-10T04:08:05.331Z,7.28
2023-03-10T04:10:20.921Z,7.27
2023-03-10T04:12:33.530Z,7.28
2023-03-10T04:14:46.066Z,7.30
2023-03-10T04:16:58.633Z,7.30
2023-03-10T04:19:11.441Z,7.32
2023-03-10T04:21:24.150Z,7.33
2023-03-10T04:23:36.801Z,7.34
2023-03-10T04:25:49.471Z,7.37
2023-03-10T04:28:02.044Z,7.41
2023-03-10T04:30:15.181Z,7.46
2023-03-10T04:32:27.910Z,7.51
2023-03-10T04:34:40.579Z,7.55
2023-03-10T04:36:53.273Z,7.59
2023-03-10T04:39:06.176Z,7.63
2023-03-10T04:41:18.869Z,7.65
2023-03-10T04:43:33.331Z,7.68
2023-03-10T04:45:48.878Z,7.71
2023-03-10T04:48:01.528Z,7.75
2023-03-10T04:50:17.446Z,7.78
2023-03-10T04:52:30.033Z,7.80
2023-03-10T04:54:42.639Z,7.82
2023-03-10T04:56:55.207Z,7.85
2023-03-10T04:59:07.718Z,7.87
2023-03-10T05:01:20.345Z,7.91
2023-03-10T05:03:32.897Z,7.93
2023-03-10T05:05:45.488Z,7.95
2023-03-10T05:07:58.038Z,7.97
2023-03-10T05:10:11.241Z,7.99
2023-03-10T05:12:24.047Z,8.03
2023-03-10T05:14:37.880Z,8.05
2023-03-10T05:16:50.500Z,8.08
2023-03-10T05:19:03.403Z,8.11
2023-03-10T05:21:16.512Z,8.13
2023-03-10T05:23:29.099Z,8.17
2023-03-10T05:25:41.704Z,8.19
2023-03-10T05:27:54.299Z,8.23
2023-03-10T05:30:08.924Z,8.26
2023-03-10T05:32:21.531Z,8.27
2023-03-10T05:34:34.119Z,8.29
2023-03-10T05:36:46.852Z,8.31
2023-03-10T05:38:59.422Z,8.33
2023-03-10T05:41:12.161Z,8.35
2023-03-10T05:43:24.829Z,8.38
2023-03-10T05:45:37.649Z,8.41
2023-03-10T05:47:50.208Z,8.41
2023-03-10T05:50:03.427Z,8.41
2023-03-10T05:52:16.438Z,8.39
2023-03-10T05:54:29.059Z,8.40
2023-03-10T05:56:41.666Z,8.43
2023-03-10T05:58:54.213Z,8.45
2023-03-10T06:01:08.034Z,8.48
2023-03-10T06:03:22.939Z,8.52
2023-03-10T06:05:35.777Z,8.53
2023-03-10T06:07:48.347Z,8.55
2023-03-10T06:10:02.069Z,8.58
2023-03-10T06:12:14.617Z,8.60
2023-03-10T06:14:27.291Z,8.62
2023-03-10T06:16:40.144Z,8.64
2023-03-10T06:18:56.566Z,8.67
2023-03-10T06:21:12.551Z,8.70
2023-03-10T06:23:26.235Z,8.74
2023-03-10T06:25:39.038Z,8.77
2023-03-10T06:27:51.611Z,8.79
2023-03-10T06:30:04.750Z,8.81
2023-03-10T06:32:17.368Z,8.82
2023-03-10T06:34:29.963Z,8.84
2023-03-10T06:36:43.344Z,8.87
2023-03-10T06:38:56.025Z,8.90
2023-03-10T06:41:09.313Z,8.94
2023-03-10T06:43:21.916Z,8.98
2023-03-10T06:45:34.496Z,9.00
2023-03-10T06:47:47.195Z,9.02
2023-03-10T06:50:00.970Z,9.02
2023-03-10T06:52:13.665Z,9.04
2023-03-10T06:54:26.523Z,9.06
2023-03-10T06:56:39.160Z,9.08
2023-03-10T06:58:51.708Z,9.10
2023-03-10T07:01:05.044Z,9.11
2023-03-10T07:03:18.500Z,9.14
2023-03-10T07:05:31.028Z,9.13
2023-03-10T07:07:43.657Z,9.15
2023-03-10T07:09:57.503Z,9.16
2023-03-10T07:12:10.136Z,9.19
2023-03-10T07:14:22.875Z,9.22
2023-03-10T07:16:35.676Z,9.25
2023-03-10T07:18:48.652Z,9.29
2023-03-10T07:21:01.421Z,9.34
2023-03-10T07:23:14.207Z,9.40
2023-03-10T07:25:27.473Z,9.46
2023-03-10T07:27:40.053Z,9.54
2023-03-10T07:29:52.612Z,9.63
2023-03-10T07:32:05.229Z,9.71
2023-03-10T07:34:17.803Z,9.78
2023-03-10T07:36:30.430Z,9.84
2023-03-10T07:38:43.150Z,9.90
2023-03-10T07:40:55.696Z,9.94
2023-03-10T07:43:08.252Z,10.00
2023-03-10T07:45:25.231Z,10.08
2023-03-10T07:47:37.761Z,10.17
2023-03-10T07:49:50.352Z,10.25
2023-03-10T07:52:03.391Z,10.34
2023-03-10T07:54:15.965Z,10.42
2023-03-10T07:56:28.725Z,10.45
2023-03-10T07:58:41.973Z,10.45
2023-03-10T08:00:58.939Z,10.43
2023-03-10T08:03:11.535Z,10.38
2023-03-10T08:05:24.065Z,10.32
2023-03-10T08:07:37.830Z,10.29
2023-03-10T08:09:51.355Z,10.29
2023-03-10T08:12:04.290Z,10.29
2023-03-10T08:14:20.934Z,10.27
2023-03-10T08:16:33.714Z,10.23
2023-03-10T08:18:46.253Z,10.17
2023-03-10T08:20:59.265Z,10.14
2023-03-10T08:23:11.775Z,10.11
2023-03-10T08:25:24.267Z,10.08
2023-03-10T08:27:36.842Z,10.06
2023-03-10T08:29:49.410Z,10.04
2023-03-10T08:32:02.043Z,10.00
2023-03-10T08:34:15.471Z,9.99
2023-03-10T08:36:30.383Z,10.02
2023-03-10T08:38:43.977Z,10.08
2023-03-10T08:40:56.863Z,10.13
2023-03-10T08:43:09.403Z,10.18
2023-03-10T08:45:21.971Z,10.23
2023-03-10T08:47:34.598Z,10.27
2023-03-10T08:49:49.009Z,10.33
2023-03-10T08:52:02.094Z,10.40
2023-03-10T08:54:18.629Z,10.44
2023-03-10T08:56:31.224Z,10.50
2023-03-10T08:58:44.377Z,10.56
2023-03-10T09:00:56.962Z,10.66
2023-03-10T09:03:15.358Z,10.78
2023-03-10T09:05:28.239Z,10.91
2023-03-10T09:07:40.963Z,11.05
2023-03-10T09:09:53.461Z,11.17
2023-03-10T09:12:08.972Z,11.28
2023-03-10T09:14:21.610Z,11.40
2023-03-10T09:16:34.278Z,11.51
2023-03-10T09:18:47.466Z,11.64
2023-03-10T09:21:00.122Z,11.74
2023-03-10T09:23:14.935Z,11.80
2023-03-10T09:25:27.600Z,11.84
2023-03-10T09:27:40.162Z,11.86
2023-03-10T09:29:52.932Z,11.85
2023-03-10T09:32:08.601Z,11.82
2023-03-10T09:34:21.359Z,11.82
2023-03-10T09:36:34.342Z,11.87
2023-03-10T09:38:47.200Z,11.92
2023-03-10T09:41:18.856Z,11.96
2023-03-10T09:43:38.907Z,12.03
2023-03-10T09:46:06.145Z,12.08
2023-03-10T09:48:36.320Z,12.08
2023-03-10T09:50:52.381Z,12.03
2023-03-10T09:53:17.481Z,11.99
2023-03-10T09:55:47.603Z,11.92
2023-03-10T09:58:03.683Z,11.86
2023-03-10T10:00:38.732Z,11.84
2023-03-10T10:02:59.790Z,11.81
2023-03-10T10:05:23.628Z,11.81
2023-03-10T10:07:52.865Z,11.82
2023-03-10T10:10:19.461Z,11.86
2023-03-10T10:12:32.018Z,11.94
2023-03-10T10:14:56.664Z,12.05
2023-03-10T10:18:18.036Z,12.18
2023-03-10T10:20:39.744Z,12.36
2023-03-10T10:22:52.355Z,12.72
2023-03-10T10:25:17.054Z,13.01
2023-03-10T10:27:32.668Z,13.31
2023-03-10T10:29:47.304Z,13.63
2023-03-10T10:32:12.345Z,14.15
2023-03-10T10:34:24.958Z,14.90
2023-03-10T10:36:48.639Z,15.48
2023-03-10T10:39:03.086Z,15.69
2023-03-10T10:41:34.136Z,15.65
2023-03-10T10:43:47.821Z,15.56
2023-03-10T10:46:09.033Z,15.44
2023-03-10T10:48:36.759Z,15.22
2023-03-10T10:50:53.890Z,15.06
2023-03-10T10:53:24.191Z,14.85
2023-03-10T10:55:36.932Z,14.65
2023-03-10T10:57:56.312Z,14.50
2023-03-10T11:00:25.240Z,14.42
2023-03-10T11:02:38.052Z,14.37
2023-03-10T11:04:50.939Z,14.28
2023-03-10T11:07:19.596Z,14.22
2023-03-10T11:09:32.255Z,14.18
2023-03-10T11:11:55.893Z,14.12
2023-03-10T11:14:32.316Z,14.09
2023-03-10T11:17:02.005Z,14.10
2023-03-10T11:19:49.845Z,14.08
2023-03-10T11:22:19.153Z,14.02
2023-03-10T11:24:40.590Z,13.96
2023-03-10T11:27:16.453Z,13.86
2023-03-10T11:29:50.639Z,13.77
2023-03-10T11:32:38.086Z,13.72
2023-03-10T11:34:55.675Z,13.65
2023-03-10T11:37:14.404Z,13.67
2023-03-10T11:39:45.578Z,13.71
2023-03-10T11:42:11.484Z,13.70
2023-03-10T11:44:46.736Z,13.65
2023-03-10T11:47:42.957Z,13.59
2023-03-10T11:50:28.937Z,13.56
2023-03-10T11:52:42.563Z,13.54
2023-03-10T11:55:05.640Z,13.54
2023-03-10T11:57:24.746Z,13.57
2023-03-10T11:59:46.591Z,13.64
2023-03-10T12:02:13.778Z,13.69
2023-03-10T12:04:51.092Z,13.76
2023-03-10T12:07:10.678Z,13.83
2023-03-10T12:09:49.069Z,13.90
2023-03-10T12:12:04.062Z,13.96
2023-03-10T12:14:16.781Z,14.02
2023-03-10T12:16:33.959Z,14.07
2023-03-10T12:18:47.201Z,14.13
2023-03-10T12:21:14.090Z,14.27
2023-03-10T12:23:26.933Z,14.47
2023-03-10T12:25:39.412Z,14.69
2023-03-10T12:28:16.712Z,15.06
2023-03-10T12:30:48.155Z,15.54
2023-03-10T12:33:00.659Z,15.87
2023-03-10T12:35:23.692Z,16.06
2023-03-10T12:37:36.199Z,16.07
2023-03-10T12:39:48.884Z,15.99
2023-03-10T12:42:03.596Z,15.95
2023-03-10T12:44:34.254Z,15.92
2023-03-10T12:46:59.439Z,15.89
2023-03-10T12:49:48.696Z,15.85
2023-03-10T12:52:19.088Z,15.78
2023-03-10T12:54:44.414Z,15.71
2023-03-10T12:57:09.610Z,15.62
2023-03-10T12:59:29.868Z,15.53
2023-03-10T13:01:55.165Z,15.45
2023-03-10T13:04:15.780Z,15.42
2023-03-10T13:06:38.732Z,15.42
2023-03-10T13:09:14.400Z,15.36
2023-03-10T13:11:52.326Z,15.25
2023-03-10T13:14:13.656Z,15.14
2023-03-10T13:16:26.323Z,15.12
2023-03-10T13:18:47.662Z,15.12
2023-03-10T13:21:03.092Z,15.14
2023-03-10T13:23:32.642Z,15.17
2023-03-10T13:25:56.028Z,15.14
2023-03-10T13:28:11.428Z,15.15
2023-03-10T13:30:27.125Z,15.13
2023-03-10T13:32:39.776Z,15.13
2023-03-10T13:34:52.906Z,15.11
2023-03-10T13:37:08.021Z,15.06
2023-03-10T13:39:25.642Z,15.07
2023-03-10T13:41:41.771Z,15.03
2023-03-10T13:43:55.032Z,15.00
2023-03-10T13:46:15.295Z,14.97
2023-03-10T13:48:29.193Z,14.93
2023-03-10T13:50:41.785Z,14.94
2023-03-10T13:52:57.809Z,14.96
2023-03-10T13:55:16.635Z,14.95
2023-03-10T13:57:33.474Z,14.93
2023-03-10T13:59:47.307Z,14.92
2023-03-10T14:02:01.270Z,14.92
2023-03-10T14:04:18.376Z,14.85
2023-03-10T14:06:31.650Z,14.81
2023-03-10T14:08:44.286Z,14.75
2023-03-10T14:11:39.074Z,14.67
2023-03-10T14:13:51.765Z,14.57
2023-03-10T14:16:04.619Z,14.56
2023-03-10T14:18:18.742Z,14.58
2023-03-10T14:20:32.755Z,14.67
2023-03-10T14:22:45.262Z,14.75
2023-03-10T14:24:59.860Z,14.82
2023-03-10T14:27:13.187Z,14.93
2023-03-10T14:29:26.511Z,15.01
2023-03-10T14:31:39.111Z,15.05
2023-03-10T14:33:51.730Z,15.15
2023-03-10T14:36:05.953Z,15.33
2023-03-10T14:38:18.602Z,15.51
2023-03-10T14:40:34.570Z,15.58
2023-03-10T14:42:48.940Z,15.61
2023-03-10T14:45:07.215Z,15.63
2023-03-10T14:47:20.026Z,15.61
2023-03-10T14:49:32.682Z,15.65
2023-03-10T14:51:45.284Z,15.69
2023-03-10T14:53:57.794Z,15.68
2023-03-10T14:56:15.150Z,15.67
2023-03-10T14:58:43.547Z,15.63
2023-03-10T15:00:56.165Z,15.62
2023-03-10T15:03:13.151Z,15.73
2023-03-10T15:05:44.981Z,15.86
2023-03-10T15:08:00.146Z,15.98
2023-03-10T15:10:13.331Z,16.11
2023-03-10T15:12:25.904Z,16.21
2023-03-10T15:14:38.486Z,16.18
2023-03-10T15:16:51.051Z,16.11
2023-03-10T15:19:03.624Z,15.93
2023-03-10T15:21:16.160Z,15.77
2023-03-10T15:23:30.079Z,15.61
2023-03-10T15:25:44.812Z,15.48
2023-03-10T15:27:58.337Z,15.33
2023-03-10T15:30:35.945Z,15.19
2023-03-10T15:32:49.008Z,15.02
2023-03-10T15:35:01.546Z,14.90
2023-03-10T15:37:14.235Z,14.79
2023-03-10T15:39:31.874Z,14.70
2023-03-10T15:41:45.199Z,14.61
2023-03-10T15:43:57.935Z,14.57
2023-03-10T15:46:11.778Z,14.52
2023-03-10T15:48:24.307Z,14.47
2023-03-10T15:50:37.013Z,14.45
2023-03-10T15:52:58.035Z,14.45
2023-03-10T15:55:10.825Z,14.41
2023-03-10T15:57:23.497Z,14.39
2023-03-10T15:59:36.487Z,14.35
2023-03-10T16:01:49.263Z,14.28
2023-03-10T16:04:05.650Z,14.21
2023-03-10T16:06:18.219Z,14.17
2023-03-10T16:08:37.081Z,14.11
2023-03-10T16:10:54.309Z,14.08
2023-03-10T16:13:07.456Z,14.03
2023-03-10T16:15:20.068Z,13.99
2023-03-10T16:17:32.655Z,13.95
2023-03-10T16:19:45.288Z,13.91
2023-03-10T16:21:57.804Z,13.86
2023-03-10T16:24:10.330Z,13.83
2023-03-10T16:26:24.186Z,13.80
2023-03-10T16:28:39.029Z,13.80
2023-03-10T16:30:51.751Z,13.79
2023-03-10T16:33:04.344Z,13.77
2023-03-10T16:35:17.689Z,13.74
2023-03-10T16:37:30.230Z,13.73
2023-03-10T16:39:43.391Z,13.69
2023-03-10T16:41:55.954Z,13.64
2023-03-10T16:44:12.314Z,13.60
2023-03-10T16:46:29.978Z,13.56
2023-03-10T16:48:45.125Z,13.50
2023-03-10T16:50:57.692Z,13.44
2023-03-10T16:53:10.244Z,13.41
2023-03-10T16:55:22.932Z,13.36
2023-03-10T16:57:36.058Z,13.32
2023-03-10T16:59:48.595Z,13.29
2023-03-10T17:02:01.252Z,13.25
2023-03-10T17:04:14.511Z,13.21
2023-03-10T17:06:30.976Z,13.17
2023-03-10T17:08:43.595Z,13.13
2023-03-10T17:10:56.335Z,13.11
2023-03-10T17:13:08.855Z,13.09
2023-03-10T17:15:21.476Z,13.07
2023-03-10T17:17:34.032Z,13.04
2023-03-10T17:19:50.408Z,13.03
2023-03-10T17:22:03.006Z,12.98
2023-03-10T17:24:17.593Z,12.92
2023-03-10T17:26:30.743Z,12.85
2023-03-10T17:28:44.909Z,12.81
2023-03-10T17:30:57.464Z,12.77
2023-03-10T17:33:10.006Z,12.73
2023-03-10T17:35:22.595Z,12.70
2023-03-10T17:37:35.131Z,12.64
2023-03-10T17:39:48.462Z,12.59
2023-03-10T17:42:01.460Z,12.52
2023-03-10T17:44:16.057Z,12.47
2023-03-10T17:46:30.181Z,12.38
2023-03-10T17:48:42.909Z,12.28
2023-03-10T17:50:56.931Z,12.22
2023-03-10T17:53:09.583Z,12.15
2023-03-10T17:55:22.736Z,12.12
2023-03-10T17:57:35.274Z,12.08
2023-03-10T17:59:47.822Z,12.05
2023-03-10T18:02:02.547Z,12.03
2023-03-10T18:04:15.097Z,12.00
2023-03-10T18:06:30.576Z,11.94
2023-03-10T18:08:43.257Z,11.89
2023-03-10T18:11:04.397Z,11.85
2023-03-10T18:13:18.013Z,11.79
2023-03-10T18:15:30.640Z,11.76
2023-03-10T18:17:43.217Z,11.72
2023-03-10T18:19:55.935Z,11.67
2023-03-10T18:22:09.134Z,11.61
2023-03-10T18:24:22.388Z,11.55
2023-03-10T18:26:35.520Z,11.51
2023-03-10T18:28:48.221Z,11.44
2023-03-10T18:31:00.750Z,11.38
2023-03-10T18:33:14.332Z,11.30
2023-03-10T18:35:26.970Z,11.22
2023-03-10T18:37:39.610Z,11.16
2023-03-10T18:39:52.223Z,11.09
2023-03-10T18:42:04.955Z,11.02
2023-03-10T18:44:17.676Z,10.97
2023-03-10T18:46:30.686Z,10.91
2023-03-10T18:48:43.486Z,10.84
2023-03-10T18:50:57.825Z,10.79
2023-03-10T18:53:10.440Z,10.72
2023-03-10T18:55:23.012Z,10.65
2023-03-10T18:57:35.620Z,10.60
2023-03-10T18:59:48.262Z,10.54
2023-03-10T19:02:01.258Z,10.50
2023-03-10T19:04:13.811Z,10.45
2023-03-10T19:06:33.935Z,10.40
2023-03-10T19:08:46.671Z,10.36
2023-03-10T19:10:59.947Z,10.31
2023-03-10T19:13:12.455Z,10.28
2023-03-10T19:15:25.201Z,10.27
2023-03-10T19:17:37.890Z,10.27
2023-03-10T19:19:50.423Z,10.28
2023-03-10T19:22:03.002Z,10.28
2023-03-10T19:24:15.635Z,10.26
2023-03-10T19:26:28.346Z,10.26
2023-03-10T19:28:40.992Z,10.23
2023-03-10T19:30:53.739Z,10.19
2023-03-10T19:33:06.237Z,10.17
2023-03-10T19:35:19.086Z,10.16
2023-03-10T19:37:31.781Z,10.14
2023-03-10T19:39:44.313Z,10.11
2023-03-10T19:41:56.873Z,10.11
2023-03-10T19:44:10.174Z,10.11
2023-03-10T19:46:22.844Z,10.10
2023-03-10T19:48:35.748Z,10.07
2023-03-10T19:50:53.847Z,10.05
2023-03-10T19:53:06.372Z,10.01
2023-03-10T19:55:22.925Z,9.99
2023-03-10T19:57:36.565Z,9.96
2023-03-10T19:59:49.542Z,9.94
2023-03-10T20:02:02.514Z,9.91
2023-03-10T20:04:15.671Z,9.88
2023-03-10T20:06:28.311Z,9.86
2023-03-10T20:08:40.891Z,9.82
2023-03-10T20:10:53.584Z,9.79
2023-03-10T20:13:06.139Z,9.77
2023-03-10T20:15:18.989Z,9.72
2023-03-10T20:17:31.610Z,9.71
2023-03-10T20:19:44.160Z,9.71
2023-03-10T20:21:57.040Z,9.70
2023-03-10T20:24:09.643Z,9.69
2023-03-10T20:26:22.219Z,9.69
2023-03-10T20:28:36.468Z,9.69
2023-03-10T20:30:51.115Z,9.68
2023-03-10T20:33:03.909Z,9.70
2023-03-10T20:35:17.733Z,9.73
2023-03-10T20:37:30.336Z,9.73
2023-03-10T20:39:43.244Z,9.76
2023-03-10T20:41:55.815Z,9.77
2023-03-10T20:44:13.967Z,9.79
2023-03-10T20:46:26.637Z,9.80
2023-03-10T20:48:39.527Z,9.80
2023-03-10T20:50:56.558Z,9.82
2023-03-10T20:53:10.060Z,9.83
2023-03-10T20:55:25.499Z,9.86
2023-03-10T20:57:38.237Z,9.88
2023-03-10T20:59:50.792Z,9.91
2023-03-10T21:02:03.584Z,9.93
2023-03-10T21:04:16.202Z,9.96
2023-03-10T21:06:28.800Z,9.99
2023-03-10T21:08:41.351Z,10.02
2023-03-10T21:10:53.978Z,10.05
2023-03-10T21:13:06.590Z,10.07
2023-03-10T21:15:19.700Z,10.09
2023-03-10T21:17:32.359Z,10.08
2023-03-10T21:19:44.970Z,10.09
2023-03-10T21:21:57.562Z,10.10
2023-03-10T21:24:10.286Z,10.09
2023-03-10T21:26:23.408Z,10.10
2023-03-10T21:28:36.085Z,10.11
2023-03-10T21:30:48.731Z,10.11
2023-03-10T21:33:01.510Z,10.10
2023-03-10T21:35:14.240Z,10.10
2023-03-10T21:37:26.781Z,10.10
2023-03-10T21:39:39.514Z,10.10
2023-03-10T21:41:52.196Z,10.10
2023-03-10T21:44:05.452Z,10.10
2023-03-10T21:46:18.149Z,10.11
2023-03-10T21:48:30.950Z,10.12
2023-03-10T21:50:43.537Z,10.12
2023-03-10T21:52:56.185Z,10.12
2023-03-10T21:55:16.199Z,10.11
2023-03-10T21:57:28.814Z,10.11
2023-03-10T21:59:41.425Z,10.13
2023-03-10T22:01:54.227Z,10.13
2023-03-10T22:04:07.034Z,10.12
2023-03-10T22:06:19.819Z,10.09
2023-03-10T22:08:33.840Z,10.10
2023-03-10T22:10:46.752Z,10.08
2023-03-10T22:12:59.415Z,10.06
2023-03-10T22:15:19.207Z,10.05
2023-03-10T22:17:32.151Z,10.05
2023-03-10T22:19:48.733Z,10.03
2023-03-10T22:22:02.414Z,10.00
2023-03-10T22:24:14.946Z,9.99
2023-03-10T22:26:27.547Z,9.97
2023-03-10T22:28:40.196Z,9.97
2023-03-10T22:30:53.065Z,9.97
2023-03-10T22:33:09.102Z,9.98
2023-03-10T22:35:22.221Z,10.00
2023-03-10T22:37:34.888Z,10.00
2023-03-10T22:39:47.485Z,10.00
2023-03-10T22:42:00.101Z,9.99
2023-03-10T22:44:12.727Z,9.95
2023-03-10T22:46:25.341Z,9.91
2023-03-10T22:48:38.267Z,9.81
2023-03-10T22:50:50.955Z,9.73
2023-03-10T22:53:08.055Z,9.69
2023-03-10T22:55:23.746Z,9.59
2023-03-10T22:57:36.316Z,9.50
2023-03-10T22:59:48.991Z,9.45
2023-03-10T23:02:01.620Z,9.42
2023-03-10T23:04:14.454Z,9.36
2023-03-10T23:06:29.069Z,9.34
2023-03-10T23:08:43.836Z,9.30
2023-03-10T23:10:56.427Z,9.26
2023-03-10T23:13:13.687Z,9.22
2023-03-10T23:15:29.286Z,9.19
2023-03-10T23:17:41.904Z,9.15
2023-03-10T23:19:56.130Z,9.10
2023-03-10T23:22:08.752Z,9.07
2023-03-10T23:24:21.533Z,9.04
2023-03-10T23:26:35.077Z,9.01
2023-03-10T23:28:47.696Z,8.97
2023-03-10T23:31:00.446Z,8.96
2023-03-10T23:33:15.385Z,8.96
2023-03-10T23:35:31.337Z,8.97
2023-03-10T23:37:44.050Z,8.97
2023-03-10T23:39:56.644Z,8.97
2023-03-10T23:42:09.565Z,8.99
2023-03-10T23:44:22.590Z,8.99
2023-03-10T23:46:35.236Z,8.99
2023-03-10T23:48:50.842Z,8.99
2023-03-10T23:51:03.681Z,8.99
2023-03-10T23:53:18.255Z,8.98
2023-03-10T23:55:33.987Z,8.96
2023-03-10T23:57:46.574Z,8.93
2023-03-10T23:59:59.173Z,8.92
